Date,TemperatureHighF,TemperatureAvgF,TemperatureLowF,DewpointHighF,DewpointAvgF,DewpointLowF,HumidityHigh,HumidityAvg,HumidityLow,PressureMaxIn,PressureMinIn,WindSpeedMaxMPH,WindSpeedAvgMPH,GustSpeedMaxMPH,PrecipitationSumIn
2013-1-7,63.0,55.0,48.1,47.0,45.2,39.0,89,71,41,30.06,30.00,9,1,13,0.01
2013-1-8,67.3,57.8,46.9,54.0,46.0,33.0,91,69,29,30.10,30.05,5,1,7,0.00
2013-1-10,57.2,55.5,53.0,41.0,40.1,38.0,63,57,51,30.02,30.01,14,9,22,0.08
2013-1-14,54.6,50.0,46.0,31.0,27.5,22.0,51,42,29,30.34,30.26,6,2,13,0.00
2013-1-15,59.1,57.0,51.6,33.0,24.1,18.0,42,28,22,30.45,30.32,10,3,13,0.00
2013-1-16,52.3,42.9,40.6,35.0,33.6,32.0,79,70,51,30.36,30.34,3,0,3,0.00
2013-1-19,75.4,72.4,65.1,40.0,33.3,29.0,35,24,19,30.09,30.05,5,2,8,0.00
2013-1-24,61.6,60.4,59.9,55.0,48.3,45.0,82,65,56,30.18,30.08,2,1,7,0.00
2013-1-27,59.8,55.6,52.9,52.0,48.2,45.0,89,76,65,30.09,30.05,9,3,12,0.00
2013-1-28,59.1,56.3,53.0,47.0,40.5,34.0,79,57,39,30.16,30.06,12,4,17,0.00
2013-1-29,47.5,46.2,45.2,42.0,41.6,41.0,86,84,80,30.24,30.21,3,1,4,0.00
2013-1-31,53.3,52.7,52.1,50.0,49.7,49.0,90,89,89,30.14,30.12,0,0,0,0.00
2013-2-1,51.9,50.0,47.9,50.0,48.1,46.0,94,93,90,30.15,30.13,0,0,0,0.00
2013-2-2,62.5,61.5,60.5,54.0,52.4,51.0,80,72,66,30.16,30.12,4,1,7,0.00
2013-2-3,71.4,65.8,60.1,55.0,54.1,52.0,83,67,50,30.13,30.02,7,2,10,0.00
2013-2-4,61.9,57.0,53.7,55.0,53.2,52.0,94,87,78,30.07,30.01,7,2,10,0.00
2013-2-8,57.4,53.8,47.3,49.0,44.3,40.0,85,70,61,30.07,29.96,12,3,17,0.12
2013-2-9,46.9,45.7,44.6,44.0,43.4,42.0,93,91,87,29.99,29.96,3,1,5,0.01
2013-2-10,52.2,51.7,51.0,44.0,42.9,42.0,73,71,70,30.08,30.08,1,0,4,0.00
2013-2-11,50.8,48.0,45.7,43.0,42.3,42.0,86,81,74,30.09,30.08,2,0,3,0.00
2013-2-12,63.6,61.2,55.5,41.0,36.6,33.0,48,40,34,30.36,30.26,6,2,12,0.00
2013-2-21,54.2,49.3,47.9,44.0,41.2,40.0,78,74,69,30.07,30.03,6,3,9,0.00
2013-2-22,61.9,52.0,43.1,49.0,44.6,40.0,89,77,61,30.21,30.12,6,2,10,0.01
2013-2-23,55.4,54.5,51.9,50.0,49.3,48.0,87,82,79,30.01,29.98,3,1,7,0.00
2013-2-24,50.8,50.4,50.0,48.0,47.5,47.0,91,90,87,30.00,30.00,0,0,0,0.00
2013-2-25,68.6,63.5,56.5,50.0,34.5,14.0,80,42,12,30.15,30.10,7,3,13,0.00
2013-2-28,69.1,62.2,56.1,40.0,36.6,32.0,53,39,30,30.30,30.23,6,2,12,0.00
2013-3-1,80.2,78.1,75.4,39.0,31.2,24.0,26,18,13,30.23,30.13,8,4,14,0.00
2013-3-4,64.4,59.8,55.9,53.0,52.6,52.0,86,77,67,30.11,30.05,7,2,12,0.00
2013-3-5,60.8,57.2,56.2,53.0,51.7,51.0,86,82,70,30.11,30.07,9,2,10,0.00
2013-3-6,62.9,60.9,57.3,47.0,45.6,45.0,66,58,52,30.16,30.10,7,3,11,0.00
2013-3-9,50.6,50.3,49.9,47.0,46.2,46.0,87,86,85,30.22,30.22,0,0,0,0.00
2013-3-10,63.8,52.2,46.0,51.0,46.2,43.0,92,81,60,30.28,30.22,7,0,7,0.00
2013-3-11,53.9,53.4,52.7,52.0,51.5,51.0,95,94,93,30.10,30.09,0,0,1,0.00
2013-3-12,55.4,53.2,50.1,54.0,52.2,49.0,96,96,95,30.09,30.03,3,1,6,0.01
2013-3-13,67.7,56.8,52.0,57.0,53.7,51.0,98,90,67,30.09,30.05,4,1,6,0.00
2013-3-18,56.2,55.8,55.3,52.0,51.8,51.0,87,86,82,30.03,30.01,5,2,8,0.00
2013-3-19,62.3,59.1,57.4,55.0,54.9,54.0,90,85,76,30.11,30.06,6,2,10,0.00
2013-3-23,57.2,56.0,55.0,54.0,53.2,53.0,94,90,86,30.00,29.92,4,2,6,0.00
2013-3-24,67.5,63.0,57.3,58.0,56.3,54.0,91,79,69,30.01,29.94,7,3,11,0.00
2013-3-26,66.6,60.0,55.6,56.0,54.5,53.0,94,83,67,29.97,29.93,7,2,11,0.00
2013-3-29,68.0,65.7,64.0,58.0,57.2,56.0,78,74,69,30.11,30.06,6,3,11,0.00
2013-3-31,66.5,63.1,59.3,58.0,57.5,57.0,92,82,73,30.12,30.07,10,4,13,0.00
2013-4-2,67.0,63.4,59.1,56.0,54.7,54.0,85,73,65,30.11,30.00,10,3,13,0.00
2013-4-5,65.2,62.7,59.5,59.0,57.9,57.0,93,85,76,30.11,30.08,6,2,10,0.00
2013-4-6,66.4,62.3,58.3,58.0,55.8,55.0,88,79,70,30.09,30.05,9,4,12,0.00
2013-4-15,65.0,61.3,58.5,54.0,53.4,53.0,82,75,68,29.94,29.88,10,4,13,0.03
2013-4-17,54.3,51.9,50.4,50.0,48.0,47.0,89,86,84,30.07,30.02,4,1,4,0.00
2013-4-22,63.7,60.7,58.5,55.0,53.4,52.0,81,77,72,29.96,29.93,7,4,12,0.00
2013-4-25,64.2,62.1,59.9,57.0,56.3,56.0,86,81,77,30.12,30.04,4,1,8,0.00
2013-4-26,65.9,61.4,59.7,58.0,56.9,56.0,89,85,73,30.16,30.11,7,2,11,0.00
2013-5-1,63.0,61.5,61.0,57.0,55.6,55.0,83,81,78,30.00,29.90,7,3,9,0.00
2013-5-3,67.3,59.5,56.1,57.0,54.6,51.0,90,84,56,29.97,29.92,2,0,5,0.00
2013-5-6,60.9,59.7,58.6,58.0,57.3,56.0,96,92,85,29.97,29.94,13,4,15,0.10
2013-5-10,69.8,63.1,61.3,57.0,56.2,56.0,83,79,65,30.08,30.06,3,1,5,0.00
2013-6-4,64.1,63.9,63.6,59.0,58.5,58.0,83,82,81,29.96,29.95,5,2,9,0.00
2013-6-5,63.7,63.7,63.6,59.0,59.0,59.0,84,84,84,29.95,29.95,2,1,6,0.00
2013-6-7,66.6,63.8,62.5,60.0,59.5,59.0,89,86,79,29.89,29.87,6,2,10,0.00
2013-6-11,72.6,71.5,70.4,64.0,63.0,62.0,76,74,72,29.94,29.90,9,4,12,0.00
2013-6-13,71.6,69.4,64.3,60.0,59.0,58.0,82,70,65,29.97,29.91,9,3,13,0.00
2013-6-21,63.8,62.9,62.0,60.0,59.8,59.0,91,89,87,29.89,29.86,2,1,5,0.00
2013-6-22,62.7,62.4,62.2,60.0,59.5,59.0,91,90,89,29.89,29.88,6,3,9,0.00
2013-6-26,76.7,75.7,74.5,66.0,65.5,65.0,72,70,69,29.97,29.91,7,4,10,0.00
2013-6-28,79.6,75.0,69.7,67.0,66.2,65.0,86,74,65,29.90,29.86,3,2,10,0.00
2013-6-30,75.6,69.5,65.3,67.0,65.0,63.0,94,85,74,29.81,29.75,8,4,12,0.00
2013-7-1,65.3,64.8,64.4,64.0,63.2,63.0,95,94,94,29.81,29.80,6,3,11,0.00
2013-7-3,79.0,70.9,67.1,69.0,67.1,66.0,95,88,72,29.92,29.87,5,1,11,0.00
2013-7-5,66.8,66.8,66.7,63.0,63.0,63.0,87,87,87,29.82,29.82,2,1,4,0.00
2013-7-6,75.1,69.1,66.1,66.0,64.0,63.0,90,84,72,29.83,29.77,9,4,13,0.00
2013-7-9,76.7,72.7,69.2,68.0,66.9,66.0,89,82,73,30.02,29.98,8,4,10,0.00
2013-7-11,72.8,69.5,66.4,67.0,66.1,65.0,96,89,81,29.97,29.94,5,2,10,0.00
2013-7-17,69.2,68.1,67.3,66.0,65.4,65.0,93,91,89,29.98,29.96,4,2,7,0.00
2013-7-18,67.1,66.9,66.9,65.0,64.7,64.0,93,92,91,29.97,29.95,6,2,7,0.00
2013-7-20,70.6,65.6,62.4,63.0,61.0,60.0,91,85,74,29.89,29.87,6,2,8,0.00
2013-7-25,71.9,68.6,65.9,64.0,63.2,62.0,88,83,76,30.00,29.95,7,3,12,0.00
2013-7-30,64.4,63.3,62.0,60.0,59.6,59.0,90,87,85,30.08,30.04,1,0,2,0.00
2013-8-16,74.8,69.5,66.8,65.0,64.2,63.0,92,84,70,29.95,29.90,3,1,6,0.00
2013-8-17,66.8,66.8,66.8,65.0,65.0,65.0,92,92,92,29.94,29.94,0,0,2,0.00
2013-8-22,78.5,75.9,70.4,65.0,63.5,60.0,79,66,57,29.84,29.80,14,4,14,0.00
2013-8-26,78.2,72.3,68.8,68.0,66.0,65.0,87,81,70,29.90,29.88,4,1,7,0.00
2013-8-28,80.9,76.5,71.7,67.0,64.2,60.0,85,67,49,29.86,29.79,6,2,11,0.00
2013-8-30,88.2,84.0,76.5,73.0,71.9,70.0,80,67,58,29.92,29.89,6,2,11,0.00
2013-9-3,80.9,75.3,72.5,70.0,69.0,68.0,90,81,66,29.86,29.79,7,3,10,0.00
2013-9-20,70.1,69.1,67.2,62.0,61.1,59.0,77,75,74,29.89,29.85,7,4,10,0.00
2013-9-23,69.0,67.7,65.9,65.0,63.8,63.0,91,87,83,29.89,29.88,2,0,2,0.00
2013-9-24,65.3,63.5,60.9,62.0,60.9,58.0,93,91,89,29.88,29.85,0,0,0,0.00
2013-9-28,85.4,79.4,75.9,59.0,50.6,37.0,56,38,18,29.99,29.95,7,3,12,0.00
2013-9-29,83.7,78.9,76.4,61.0,55.6,43.0,57,46,25,30.03,29.97,6,3,11,0.00
2013-10-9,66.4,63.5,59.6,57.0,54.4,52.0,82,72,63,29.85,29.76,12,5,19,0.00
2013-10-14,65.4,64.1,62.8,62.0,62.0,61.0,95,92,88,29.94,29.92,2,0,4,0.00
2013-10-15,62.9,62.7,62.6,62.0,61.3,61.0,95,95,95,29.93,29.92,0,0,3,0.00
2013-10-31,73.2,70.2,65.2,54.0,49.7,45.0,67,49,37,30.02,29.97,7,4,13,0.00
2013-11-1,78.2,66.6,52.7,51.0,47.2,42.0,78,53,28,30.09,30.03,3,0,8,0.00
2013-11-8,72.4,68.1,57.2,59.0,52.8,39.0,66,58,51,30.05,29.99,3,1,6,0.00
2013-11-10,77.2,66.5,56.2,55.0,45.0,34.0,65,49,22,30.13,30.06,3,1,5,0.00
2013-11-20,61.9,61.4,61.1,59.0,59.0,59.0,93,92,91,29.93,29.90,3,2,7,0.00
2013-11-21,61.3,59.8,59.2,59.0,58.3,58.0,95,94,92,29.90,29.88,7,4,11,0.00
2013-11-24,66.8,62.8,59.1,51.0,49.5,47.0,75,63,54,30.15,30.11,7,3,10,0.00
2013-11-25,67.7,57.7,48.4,55.0,48.5,44.0,86,73,51,30.20,30.15,8,2,12,0.00
2013-11-30,58.6,57.0,55.6,55.0,53.5,52.0,90,87,86,30.16,30.15,0,0,0,0.00
2013-12-1,56.6,55.1,53.6,54.0,52.2,51.0,92,90,88,30.16,30.14,1,0,1,0.00
2013-12-6,60.5,53.8,49.4,43.0,41.2,40.0,72,63,48,30.20,30.14,5,2,12,0.00
2013-12-11,66.7,60.9,57.2,53.0,48.7,36.0,78,66,33,30.16,30.10,4,1,7,0.00
2013-12-12,55.2,52.4,48.8,53.0,50.7,47.0,96,94,91,30.21,30.18,0,0,1,0.00
2013-12-13,48.1,47.9,47.5,46.0,45.2,44.0,93,90,84,30.20,30.19,0,0,2,0.00
2013-12-16,78.6,62.3,53.0,46.0,41.2,33.0,70,49,19,30.11,30.07,2,0,3,0.00
2013-12-23,64.1,56.9,51.4,49.0,46.4,44.0,84,69,48,30.20,30.18,3,0,5,0.00
2013-12-24,75.0,59.9,46.9,50.0,43.5,37.0,87,59,26,30.20,30.07,4,0,8,0.00
2013-12-25,77.0,60.8,48.8,50.0,42.7,32.0,86,56,20,30.18,30.08,3,0,8,0.00
2013-12-26,76.1,60.0,46.0,47.0,36.3,17.0,75,48,11,30.16,30.06,5,0,8,0.00
2013-12-27,78.5,59.5,45.7,55.0,40.1,24.0,86,55,13,30.15,30.04,4,0,7,0.00
2013-12-28,67.3,56.9,50.6,58.0,48.3,35.0,97,75,39,30.06,29.95,6,1,13,0.00
2013-12-29,70.1,56.0,42.3,53.0,46.5,37.0,98,75,32,30.15,30.00,6,1,10,0.00
2013-12-30,74.2,58.0,45.0,47.0,33.5,18.0,92,46,12,30.24,30.15,8,1,12,0.00
2013-12-31,68.3,55.6,45.1,54.0,41.1,29.0,97,63,26,30.20,30.09,6,1,8,0.00
2014-1-1,66.2,54.9,44.3,55.0,50.5,44.0,99,87,50,30.14,30.04,8,1,11,0.00
2014-1-2,70.0,57.1,45.6,56.0,52.1,45.0,99,85,53,30.10,30.00,3,0,6,0.00